Observation data for Childress on 09/10/2017      Previous  Date       Current Mesonet Observations  Soil Data  Daily Summary Page  Observations in Plain Language
KCXS 100500Z 12008KT 17/11 A3019 RMK A01 T01740107  RH  067%=      5-min Rain = 0
KCXS 100505Z 12008KT 17/11 A3019 RMK A01 T01730107  RH  067%=      5-min Rain = 0
KCXS 100510Z 12009KT 17/11 A3019 RMK A01 T01720107  RH  068%=      5-min Rain = 0
KCXS 100515Z 13009KT 17/11 A3019 RMK A01 T01710107  RH  068%=      5-min Rain = 0
KCXS 100520Z 13008KT 17/11 A3019 RMK A01 T01710107  RH  068%=      5-min Rain = 0
KCXS 100525Z 13008KT 17/11 A3019 RMK A01 T01690107  RH  069%=      5-min Rain = 0
KCXS 100530Z 13007KT 17/11 A3019 RMK A01 T01670108  RH  070%=      5-min Rain = 0
KCXS 100535Z 13008KT 17/11 A3019 RMK A01 T01650108  RH  071%=      5-min Rain = 0
KCXS 100540Z 13008KT 16/11 A3019 RMK A01 T01630108  RH  072%=      5-min Rain = 0
KCXS 100545Z 13008KT 16/11 A3019 RMK A01 T01620108  RH  073%=      5-min Rain = 0
KCXS 100550Z 13007KT 16/11 A3019 RMK A01 T01610107  RH  073%=      5-min Rain = 0
KCXS 100555Z 13007KT 16/11 A3019 RMK A01 T01610108  RH  073%=      5-min Rain = 0
KCXS 100600Z 13007KT 16/11 A3019 RMK A01 T01600108  RH  074%=      5-min Rain = 0
KCXS 100605Z 13008KT 16/11 A3019 RMK A01 T01590108  RH  074%=      5-min Rain = 0
KCXS 100610Z 12008KT 16/11 A3019 RMK A01 T01580108  RH  074%=      5-min Rain = 0
KCXS 100615Z 12008KT 16/11 A3019 RMK A01 T01600108  RH  074%=      5-min Rain = 0
KCXS 100620Z 12008KT 16/11 A3019 RMK A01 T01610108  RH  073%=      5-min Rain = 0
KCXS 100625Z 12008KT 16/11 A3019 RMK A01 T01600108  RH  074%=      5-min Rain = 0
KCXS 100630Z 12008KT 16/11 A3019 RMK A01 T01590108  RH  074%=      5-min Rain = 0
KCXS 100635Z 12008KT 16/11 A3019 RMK A01 T01600108  RH  074%=      5-min Rain = 0
KCXS 100640Z 12008KT 16/11 A3019 RMK A01 T01590108  RH  074%=      5-min Rain = 0
KCXS 100645Z 12008KT 16/11 A3019 RMK A01 T01580109  RH  075%=      5-min Rain = 0
KCXS 100650Z 13008KT 16/11 A3019 RMK A01 T01560109  RH  076%=      5-min Rain = 0
KCXS 100655Z 13008KT 16/11 A3019 RMK A01 T01550109  RH  076%=      5-min Rain = 0
KCXS 100700Z 12007KT 15/11 A3019 RMK A01 T01540109  RH  077%=      5-min Rain = 0
KCXS 100705Z 12007KT 15/11 A302 RMK A01 T01520108  RH  078%=      5-min Rain = 0
KCXS 100710Z 12007KT 15/11 A302 RMK A01 T01500108  RH  078%=      5-min Rain = 0
KCXS 100715Z 12007KT 15/11 A302 RMK A01 T01490107  RH  079%=      5-min Rain = 0
KCXS 100720Z 11006KT 15/11 A302 RMK A01 T01480107  RH  079%=      5-min Rain = 0
KCXS 100725Z 11007KT 15/11 A302 RMK A01 T01480107  RH  079%=      5-min Rain = 0
KCXS 100730Z 12007KT 15/11 A302 RMK A01 T01470107  RH  080%=      5-min Rain = 0
KCXS 100735Z 11007KT 15/11 A302 RMK A01 T01470107  RH  080%=      5-min Rain = 0
KCXS 100740Z 12007KT 15/11 A302 RMK A01 T01460108  RH  080%=      5-min Rain = 0
KCXS 100745Z 13007KT 15/11 A302 RMK A01 T01470108  RH  080%=      5-min Rain = 0
KCXS 100750Z 13007KT 15/11 A302 RMK A01 T01470107  RH  080%=      5-min Rain = 0
KCXS 100755Z 13007KT 15/11 A302 RMK A01 T01470107  RH  080%=      5-min Rain = 0
KCXS 100800Z 14007KT 15/11 A302 RMK A01 T01460108  RH  080%=      5-min Rain = 0
KCXS 100805Z 14007KT 15/11 A302 RMK A01 T01460108  RH  080%=      5-min Rain = 0
KCXS 100810Z 14007KT 15/11 A302 RMK A01 T01470108  RH  080%=      5-min Rain = 0
KCXS 100815Z 14007KT 15/11 A302 RMK A01 T01470108  RH  080%=      5-min Rain = 0
KCXS 100820Z 14007KT 15/11 A302 RMK A01 T01470108  RH  080%=      5-min Rain = 0
KCXS 100825Z 13007KT 15/11 A302 RMK A01 T01460108  RH  081%=      5-min Rain = 0
KCXS 100830Z 13007KT 15/11 A302 RMK A01 T01460108  RH  080%=      5-min Rain = 0
KCXS 100835Z 14008KT 15/11 A302 RMK A01 T01460108  RH  080%=      5-min Rain = 0
KCXS 100840Z 14008KT 15/11 A302 RMK A01 T01460108  RH  081%=      5-min Rain = 0
KCXS 100845Z 14007KT 15/11 A302 RMK A01 T01470109  RH  080%=      5-min Rain = 0
KCXS 100850Z 14007KT 15/11 A302 RMK A01 T01480109  RH  080%=      5-min Rain = 0
KCXS 100855Z 14008KT 15/11 A302 RMK A01 T01470108  RH  081%=      5-min Rain = 0
KCXS 100900Z 14007KT 15/11 A302 RMK A01 T01460109  RH  081%=      5-min Rain = 0
KCXS 100905Z 14007KT 15/11 A302 RMK A01 T01460109  RH  081%=      5-min Rain = 0
KCXS 100910Z 14007KT 15/11 A302 RMK A01 T01460109  RH  081%=      5-min Rain = 0
KCXS 100915Z 15008KT 15/11 A302 RMK A01 T01460109  RH  081%=      5-min Rain = 0
KCXS 100920Z 14008KT 15/11 A302 RMK A01 T01460109  RH  081%=      5-min Rain = 0
KCXS 100925Z 14008KT 15/11 A302 RMK A01 T01460109  RH  081%=      5-min Rain = 0
KCXS 100930Z 15008KT 15/11 A302 RMK A01 T01470110  RH  081%=      5-min Rain = 0
KCXS 100935Z 15008KT 15/11 A302 RMK A01 T01480110  RH  081%=      5-min Rain = 0
KCXS 100940Z 15008KT 15/11 A302 RMK A01 T01490111  RH  080%=      5-min Rain = 0
KCXS 100945Z 15008KT 15/11 A302 RMK A01 T01500111  RH  080%=      5-min Rain = 0
KCXS 100950Z 15008KT 15/11 A302 RMK A01 T01510111  RH  080%=      5-min Rain = 0
KCXS 100955Z 15008KT 15/11 A302 RMK A01 T01510111  RH  080%=      5-min Rain = 0
KCXS 101000Z 15008KT 15/11 A302 RMK A01 T01520111  RH  079%=      5-min Rain = 0
KCXS 101005Z 15008KT 15/11 A302 RMK A01 T01510111  RH  080%=      5-min Rain = 0
KCXS 101010Z 15007KT 15/11 A302 RMK A01 T01510111  RH  080%=      5-min Rain = 0
KCXS 101015Z 15006KT 15/11 A302 RMK A01 T01500110  RH  080%=      5-min Rain = 0
KCXS 101020Z 16006KT 15/11 A302 RMK A01 T01480110  RH  080%=      5-min Rain = 0
KCXS 101025Z 16007KT 15/11 A3021 RMK A01 T01470110  RH  081%=      5-min Rain = 0
KCXS 101030Z 17007KT 15/11 A3021 RMK A01 T01470111  RH  082%=      5-min Rain = 0
KCXS 101035Z 17007KT 15/11 A3021 RMK A01 T01470111  RH  082%=      5-min Rain = 0
KCXS 101040Z 17007KT 15/11 A3021 RMK A01 T01480111  RH  082%=      5-min Rain = 0
KCXS 101045Z 17007KT 15/11 A3021 RMK A01 T01480112  RH  082%=      5-min Rain = 0
KCXS 101050Z 17007KT 15/11 A3021 RMK A01 T01490113  RH  082%=      5-min Rain = 0
KCXS 101055Z 17007KT 15/11 A3022 RMK A01 T01500113  RH  081%=      5-min Rain = 0
KCXS 101100Z 18006KT 15/11 A3022 RMK A01 T01510113  RH  081%=      5-min Rain = 0
KCXS 101105Z 18006KT 15/11 A3022 RMK A01 T01510113  RH  081%=      5-min Rain = 0
KCXS 101110Z 19007KT 15/11 A3022 RMK A01 T01540114  RH  079%=      5-min Rain = 0
KCXS 101115Z 19007KT 16/11 A3023 RMK A01 T01580114  RH  078%=      5-min Rain = 0
KCXS 101120Z 19007KT 16/11 A3023 RMK A01 T01620114  RH  076%=      5-min Rain = 0
KCXS 101125Z 19008KT 16/11 A3023 RMK A01 T01640114  RH  075%=      5-min Rain = 0
KCXS 101130Z 19008KT 17/11 A3023 RMK A01 T01660113  RH  074%=      5-min Rain = 0
KCXS 101135Z 18008KT 17/11 A3023 RMK A01 T01660113  RH  073%=      5-min Rain = 0
KCXS 101140Z 17007KT 17/11 A3023 RMK A01 T01650113  RH  074%=      5-min Rain = 0
KCXS 101145Z 14006KT 16/11 A3023 RMK A01 T01610112  RH  076%=      5-min Rain = 0
KCXS 101150Z 13006KT 15/11 A3023 RMK A01 T01530112  RH  079%=      5-min Rain = 0
KCXS 101155Z 14006KT 15/11 A3023 RMK A01 T01480111  RH  081%=      5-min Rain = 0
KCXS 101200Z 14006KT 15/11 A3023 RMK A01 T01470111  RH  082%=      5-min Rain = 0
KCXS 101205Z 15006KT 15/11 A3023 RMK A01 T01450110  RH  083%=      5-min Rain = 0
KCXS 101210Z 15006KT 14/11 A3023 RMK A01 T01440110  RH  083%=      5-min Rain = 0
KCXS 101215Z 15005KT 14/11 A3023 RMK A01 T01440110  RH  083%=      5-min Rain = 0
KCXS 101220Z 15005KT 14/11 A3024 RMK A01 T01430110  RH  083%=      5-min Rain = 0
KCXS 101225Z 14004KT 14/11 A3024 RMK A01 T01440110  RH  083%=      5-min Rain = 0
KCXS 101230Z 14004KT 15/11 A3024 RMK A01 T01450111  RH  083%=      5-min Rain = 0
KCXS 101235Z 14003KT 15/11 A3025 RMK A01 T01470111  RH  082%=      5-min Rain = 0
KCXS 101240Z 10003KT 15/11 A3025 RMK A01 T01470110  RH  081%=      5-min Rain = 0
KCXS 101245Z 12003KT 15/11 A3025 RMK A01 T01460111  RH  082%=      5-min Rain = 0
KCXS 101250Z 13003KT 15/11 A3025 RMK A01 T01480112  RH  082%=      5-min Rain = 0
KCXS 101255Z 14004KT 15/11 A3025 RMK A01 T01510112  RH  080%=      5-min Rain = 0
KCXS 101300Z 13003KT 15/11 A3025 RMK A01 T01520113  RH  080%=      5-min Rain = 0
KCXS 101305Z 13003KT 16/12 A3026 RMK A01 T01550115  RH  080%=      5-min Rain = 0
KCXS 101310Z 11003KT 16/12 A3026 RMK A01 T01590116  RH  079%=      5-min Rain = 0
KCXS 101315Z 12004KT 16/12 A3026 RMK A01 T01610118  RH  078%=      5-min Rain = 0
KCXS 101320Z 11003KT 16/12 A3026 RMK A01 T01640119  RH  078%=      5-min Rain = 0
KCXS 101325Z 11003KT 17/12 A3026 RMK A01 T01670120  RH  077%=      5-min Rain = 0
KCXS 101330Z 13003KT 17/12 A3026 RMK A01 T01690120  RH  076%=      5-min Rain = 0
KCXS 101335Z 14003KT 17/12 A3026 RMK A01 T01720120  RH  074%=      5-min Rain = 0
KCXS 101340Z 15004KT 17/12 A3026 RMK A01 T01740119  RH  073%=      5-min Rain = 0
KCXS 101345Z 15003KT 18/12 A3026 RMK A01 T01760119  RH  072%=      5-min Rain = 0
KCXS 101350Z 16004KT 18/12 A3026 RMK A01 T01780119  RH  071%=      5-min Rain = 0
KCXS 101355Z 17004KT 18/12 A3026 RMK A01 T01810120  RH  070%=      5-min Rain = 0
KCXS 101400Z 17004KT 18/12 A3026 RMK A01 T01830119  RH  069%=      5-min Rain = 0
KCXS 101405Z 17004KT 19/12 A3026 RMK A01 T01870120  RH  067%=      5-min Rain = 0
KCXS 101410Z 17005KT 19/12 A3026 RMK A01 T01900119  RH  066%=      5-min Rain = 0
KCXS 101415Z 16006KT 19/12 A3026 RMK A01 T01940121  RH  065%=      5-min Rain = 0
KCXS 101420Z 15007KT 20/12 A3026 RMK A01 T01970120  RH  064%=      5-min Rain = 0
KCXS 101425Z 16006KT 20/12 A3026 RMK A01 T02000121  RH  063%=      5-min Rain = 0
KCXS 101430Z 15005KT 20/12 A3026 RMK A01 T02030123  RH  062%=      5-min Rain = 0
KCXS 101435Z 15007KT 21/12 A3026 RMK A01 T02060122  RH  061%=      5-min Rain = 0
KCXS 101440Z 15007KT 21/12 A3026 RMK A01 T02090122  RH  060%=      5-min Rain = 0
KCXS 101445Z 14008KT 21/12 A3026 RMK A01 T02100121  RH  059%=      5-min Rain = 0
KCXS 101450Z 14008KT 21/12 A3026 RMK A01 T02120121  RH  058%=      5-min Rain = 0
KCXS 101455Z 14008KT 21/12 A3027 RMK A01 T02140121  RH  058%=      5-min Rain = 0
KCXS 101500Z 14007KT 22/12 A3027 RMK A01 T02170123  RH  057%=      5-min Rain = 0
KCXS 101505Z 15009KT 22/12 A3027 RMK A01 T02200122  RH  056%=      5-min Rain = 0
KCXS 101510Z 15008G13KT 22/12 A3027 RMK A01 T02240121  RH  054%=      5-min Rain = 0
KCXS 101515Z 16009KT 23/12 A3027 RMK A01 T02280121  RH  053%=      5-min Rain = 0
KCXS 101520Z 17009KT 23/12 A3027 RMK A01 T02300120  RH  052%=      5-min Rain = 0
KCXS 101525Z 17009KT 23/12 A3027 RMK A01 T02320120  RH  051%=      5-min Rain = 0
KCXS 101530Z 16010KT 23/12 A3027 RMK A01 T02330119  RH  051%=      5-min Rain = 0
KCXS 101535Z 17010KT 23/12 A3027 RMK A01 T02330120  RH  051%=      5-min Rain = 0
KCXS 101540Z 17010KT 23/12 A3027 RMK A01 T02340119  RH  050%=      5-min Rain = 0
KCXS 101545Z 16008KT 24/12 A3027 RMK A01 T02350120  RH  050%=      5-min Rain = 0
KCXS 101550Z 16008G13KT 24/12 A3027 RMK A01 T02360121  RH  050%=      5-min Rain = 0
KCXS 101555Z 16008KT 24/12 A3027 RMK A01 T02390120  RH  049%=      5-min Rain = 0
KCXS 101600Z 17008KT 24/12 A3027 RMK A01 T02390119  RH  049%=      5-min Rain = 0
KCXS 101605Z 15008KT 24/12 A3027 RMK A01 T02400119  RH  049%=      5-min Rain = 0
KCXS 101610Z 18008KT 24/12 A3026 RMK A01 T02420119  RH  048%=      5-min Rain = 0
KCXS 101615Z 18009KT 24/12 A3026 RMK A01 T02430120  RH  048%=      5-min Rain = 0
KCXS 101620Z 18009KT 24/12 A3026 RMK A01 T02430119  RH  048%=      5-min Rain = 0
KCXS 101625Z 16009KT 24/12 A3026 RMK A01 T02430119  RH  047%=      5-min Rain = 0
KCXS 101630Z 16008KT 24/12 A3026 RMK A01 T02430119  RH  048%=      5-min Rain = 0
KCXS 101635Z 16007KT 25/12 A3026 RMK A01 T02460119  RH  047%=      5-min Rain = 0
KCXS 101640Z 17007KT 25/12 A3026 RMK A01 T02490120  RH  046%=      5-min Rain = 0
KCXS 101645Z 17009KT 25/12 A3026 RMK A01 T02510118  RH  045%=      5-min Rain = 0
KCXS 101650Z 16008KT 25/11 A3026 RMK A01 T02510114  RH  044%=      5-min Rain = 0
KCXS 101655Z 15007KT 25/12 A3025 RMK A01 T02500118  RH  045%=      5-min Rain = 0
KCXS 101700Z 15005G11KT 25/12 A3025 RMK A01 T02490118  RH  046%=      5-min Rain = 0
KCXS 101705Z 17007G12KT 25/11 A3025 RMK A01 T02510112  RH  043%=      5-min Rain = 0
KCXS 101710Z 15007G13KT 25/11 A3025 RMK A01 T02520112  RH  043%=      5-min Rain = 0
KCXS 101715Z 14007KT 25/11 A3025 RMK A01 T02540112  RH  042%=      5-min Rain = 0
KCXS 101720Z 16005KT 26/11 A3025 RMK A01 T02550114  RH  043%=      5-min Rain = 0
KCXS 101725Z 17005KT 26/12 A3025 RMK A01 T02550117  RH  044%=      5-min Rain = 0
KCXS 101730Z 17005G10KT 26/12 A3024 RMK A01 T02620116  RH  042%=      5-min Rain = 0
KCXS 101735Z 20007KT 26/12 A3024 RMK A01 T02600116  RH  042%=      5-min Rain = 0
KCXS 101740Z 17006G12KT 26/12 A3024 RMK A01 T02610115  RH  041%=      5-min Rain = 0
KCXS 101745Z 15006G12KT 26/11 A3024 RMK A01 T02620113  RH  041%=      5-min Rain = 0
KCXS 101750Z 15006G12KT 26/11 A3024 RMK A01 T02610112  RH  041%=      5-min Rain = 0
KCXS 101755Z 17008KT 26/11 A3024 RMK A01 T02640112  RH  040%=      5-min Rain = 0
KCXS 101800Z 15006KT 27/11 A3024 RMK A01 T02650110  RH  039%=      5-min Rain = 0
KCXS 101805Z 10007KT 27/11 A3024 RMK A01 T02650108  RH  039%=      5-min Rain = 0
KCXS 101810Z 08006KT 26/11 A3023 RMK A01 T02640107  RH  039%=      5-min Rain = 0
KCXS 101815Z 14008KT 27/11 A3023 RMK A01 T02680110  RH  039%=      5-min Rain = 0
KCXS 101820Z 17006KT 27/11 A3023 RMK A01 T02680110  RH  039%=      5-min Rain = 0
KCXS 101825Z 16003KT 27/11 A3023 RMK A01 T02680108  RH  038%=      5-min Rain = 0
KCXS 101830Z 13006G12KT 27/11 A3023 RMK A01 T02690108  RH  038%=      5-min Rain = 0
KCXS 101835Z 11007G13KT 27/11 A3023 RMK A01 T02730107  RH  037%=      5-min Rain = 0
KCXS 101840Z 11007KT 27/11 A3022 RMK A01 T02740107  RH  037%=      5-min Rain = 0
KCXS 101845Z 14007KT 28/11 A3022 RMK A01 T02750107  RH  036%=      5-min Rain = 0
KCXS 101850Z 12005KT 27/10 A3022 RMK A01 T02740103  RH  036%=      5-min Rain = 0
KCXS 101855Z 12006KT 27/10 A3022 RMK A01 T02740103  RH  035%=      5-min Rain = 0
KCXS 101900Z 10005G10KT 28/11 A3022 RMK A01 T02750105  RH  036%=      5-min Rain = 0
KCXS 101905Z 11004KT 28/11 A3021 RMK A01 T02750107  RH  036%=      5-min Rain = 0
KCXS 101910Z 17008KT 28/10 A3021 RMK A01 T02790103  RH  034%=      5-min Rain = 0
KCXS 101915Z 17006KT 28/10 A3021 RMK A01 T02770103  RH  035%=      5-min Rain = 0
KCXS 101920Z 16005KT 28/10 A3021 RMK A01 T02780102  RH  034%=      5-min Rain = 0
KCXS 101925Z 16004KT 28/10 A3021 RMK A01 T02790101  RH  034%=      5-min Rain = 0
KCXS 101930Z 13007KT 28/10 A3021 RMK A01 T02790102  RH  034%=      5-min Rain = 0
KCXS 101935Z 12007G14KT 28/10 A302 RMK A01 T02780103  RH  035%=      5-min Rain = 0
KCXS 101940Z 13006G12KT 28/10 A302 RMK A01 T02800102  RH  034%=      5-min Rain = 0
KCXS 101945Z 11008KT 28/10 A302 RMK A01 T02840102  RH  033%=      5-min Rain = 0
KCXS 101950Z 14008KT 28/10 A302 RMK A01 T02830100  RH  033%=      5-min Rain = 0
KCXS 101955Z 16004G9KT 28/10 A302 RMK A01 T02820099  RH  033%=      5-min Rain = 0
KCXS 102000Z 13007KT 28/10 A302 RMK A01 T02840098  RH  032%=      5-min Rain = 0
KCXS 102005Z 09004KT 28/10 A3019 RMK A01 T02830096  RH  032%=      5-min Rain = 0
KCXS 102010Z 08003KT 28/10 A3019 RMK A01 T02820095  RH  032%=      5-min Rain = 0
KCXS 102015Z 11005KT 29/10 A3019 RMK A01 T02850099  RH  032%=      5-min Rain = 0
KCXS 102020Z 15004KT 29/10 A3019 RMK A01 T02870095  RH  031%=      5-min Rain = 0
KCXS 102025Z 16002KT 28/10 A3019 RMK A01 T02840096  RH  032%=      5-min Rain = 0
KCXS 102030Z 12004G9KT 28/10 A3018 RMK A01 T02840098  RH  032%=      5-min Rain = 0
KCXS 102035Z 14007KT 29/10 A3018 RMK A01 T02870098  RH  032%=      5-min Rain = 0
KCXS 102040Z 11005KT 29/10 A3018 RMK A01 T02860097  RH  032%=      5-min Rain = 0
KCXS 102045Z 12006KT 29/10 A3018 RMK A01 T02880098  RH  032%=      5-min Rain = 0
KCXS 102050Z 14006KT 29/10 A3018 RMK A01 T02890095  RH  031%=      5-min Rain = 0
KCXS 102055Z 12005KT 29/10 A3017 RMK A01 T02870095  RH  031%=      5-min Rain = 0
KCXS 102100Z 12005KT 29/10 A3017 RMK A01 T02890098  RH  032%=      5-min Rain = 0
KCXS 102105Z 10007KT 29/10 A3017 RMK A01 T02920100  RH  031%=      5-min Rain = 0
KCXS 102110Z 10007KT 29/10 A3017 RMK A01 T02930099  RH  031%=      5-min Rain = 0
KCXS 102115Z 10007G12KT 29/10 A3017 RMK A01 T02920097  RH  031%=      5-min Rain = 0
KCXS 102120Z 12008KT 29/10 A3016 RMK A01 T02930095  RH  030%=      5-min Rain = 0
KCXS 102125Z 13006KT 29/09 A3016 RMK A01 T02920093  RH  030%=      5-min Rain = 0
KCXS 102130Z 14008KT 29/10 A3016 RMK A01 T02920097  RH  031%=      5-min Rain = 0
KCXS 102135Z 14006KT 29/09 A3016 RMK A01 T02930092  RH  030%=      5-min Rain = 0
KCXS 102140Z 11004G10KT 29/09 A3016 RMK A01 T02890093  RH  030%=      5-min Rain = 0
KCXS 102145Z 10007KT 29/09 A3016 RMK A01 T02920093  RH  030%=      5-min Rain = 0
KCXS 102150Z 11006KT 29/10 A3016 RMK A01 T02930095  RH  030%=      5-min Rain = 0
KCXS 102155Z 13007KT 29/09 A3016 RMK A01 T02920091  RH  030%=      5-min Rain = 0
KCXS 102200Z 12007KT 29/09 A3016 RMK A01 T02910091  RH  030%=      5-min Rain = 0
KCXS 102205Z 10007G14KT 29/09 A3016 RMK A01 T02920091  RH  030%=      5-min Rain = 0
KCXS 102210Z 10009KT 29/09 A3016 RMK A01 T02920089  RH  029%=      5-min Rain = 0
KCXS 102215Z 11007KT 29/09 A3016 RMK A01 T02900088  RH  029%=      5-min Rain = 0
KCXS 102220Z 10008KT 29/09 A3016 RMK A01 T02880085  RH  029%=      5-min Rain = 0
KCXS 102225Z 12010KT 29/09 A3016 RMK A01 T02880087  RH  029%=      5-min Rain = 0
KCXS 102230Z 12008KT 29/09 A3016 RMK A01 T02890086  RH  029%=      5-min Rain = 0
KCXS 102235Z 13007KT 29/09 A3016 RMK A01 T02890086  RH  029%=      5-min Rain = 0
KCXS 102240Z 12007G12KT 29/09 A3016 RMK A01 T02910087  RH  029%=      5-min Rain = 0
KCXS 102245Z 13008KT 29/08 A3016 RMK A01 T02880083  RH  028%=      5-min Rain = 0
KCXS 102250Z 10008KT 29/08 A3016 RMK A01 T02860083  RH  029%=      5-min Rain = 0
KCXS 102255Z 11008KT 29/08 A3016 RMK A01 T02860082  RH  029%=      5-min Rain = 0
KCXS 102300Z 12007G13KT 29/08 A3016 RMK A01 T02860081  RH  028%=      5-min Rain = 0
KCXS 102305Z 12008KT 29/08 A3016 RMK A01 T02850081  RH  029%=      5-min Rain = 0
KCXS 102310Z 10007KT 28/08 A3016 RMK A01 T02840082  RH  029%=      5-min Rain = 0
KCXS 102315Z 13007KT 28/08 A3016 RMK A01 T02840084  RH  029%=      5-min Rain = 0
KCXS 102320Z 12008KT 28/08 A3016 RMK A01 T02830084  RH  029%=      5-min Rain = 0
KCXS 102325Z 10008KT 28/09 A3016 RMK A01 T02810088  RH  031%=      5-min Rain = 0
KCXS 102330Z 10008KT 28/09 A3016 RMK A01 T02780090  RH  031%=      5-min Rain = 0
KCXS 102335Z 11009KT 28/09 A3016 RMK A01 T02780090  RH  032%=      5-min Rain = 0
KCXS 102340Z 10010KT 28/09 A3016 RMK A01 T02750090  RH  032%=      5-min Rain = 0
KCXS 102345Z 10009KT 27/09 A3016 RMK A01 T02730090  RH  033%=      5-min Rain = 0
KCXS 102350Z 11009KT 27/09 A3016 RMK A01 T02710089  RH  033%=      5-min Rain = 0
KCXS 102355Z 10009KT 27/09 A3016 RMK A01 T02700089  RH  033%=      5-min Rain = 0
KCXS 110000Z 10009KT 27/09 A3016 RMK A01 T02680089  RH  033%=      5-min Rain = 0
KCXS 110005Z 11009KT 27/09 A3016 RMK A01 T02650089  RH  034%=      5-min Rain = 0
KCXS 110010Z 11010KT 26/09 A3016 RMK A01 T02630087  RH  034%=      5-min Rain = 0
KCXS 110015Z 11009KT 26/09 A3016 RMK A01 T02610087  RH  034%=      5-min Rain = 0
KCXS 110020Z 11009KT 26/09 A3016 RMK A01 T02590089  RH  035%=      5-min Rain = 0
KCXS 110025Z 11008KT 26/09 A3016 RMK A01 T02560090  RH  036%=      5-min Rain = 0
KCXS 110030Z 11008KT 25/09 A3016 RMK A01 T02520092  RH  037%=      5-min Rain = 0
KCXS 110035Z 11009KT 25/09 A3016 RMK A01 T02500092  RH  038%=      5-min Rain = 0
KCXS 110040Z 11008KT 25/09 A3016 RMK A01 T02470094  RH  039%=      5-min Rain = 0
KCXS 110045Z 11008KT 24/09 A3016 RMK A01 T02440094  RH  040%=      5-min Rain = 0
KCXS 110050Z 11008KT 24/10 A3015 RMK A01 T02410095  RH  041%=      5-min Rain = 0
KCXS 110055Z 11008KT 24/10 A3016 RMK A01 T02380095  RH  042%=      5-min Rain = 0
KCXS 110100Z 11008KT 23/10 A3016 RMK A01 T02340095  RH  042%=      5-min Rain = 0
KCXS 110105Z 11008KT 23/09 A3016 RMK A01 T02310094  RH  043%=      5-min Rain = 0
KCXS 110110Z 11008KT 23/09 A3016 RMK A01 T02290094  RH  044%=      5-min Rain = 0
KCXS 110115Z 11008KT 23/09 A3016 RMK A01 T02280094  RH  044%=      5-min Rain = 0
KCXS 110120Z 12008KT 23/09 A3016 RMK A01 T02260094  RH  045%=      5-min Rain = 0
KCXS 110125Z 12008KT 22/10 A3016 RMK A01 T02230095  RH  045%=      5-min Rain = 0
KCXS 110130Z 12008KT 22/10 A3016 RMK A01 T02210095  RH  046%=      5-min Rain = 0
KCXS 110135Z 12008KT 22/10 A3016 RMK A01 T02190096  RH  047%=      5-min Rain = 0
KCXS 110140Z 12008KT 22/10 A3016 RMK A01 T02170097  RH  048%=      5-min Rain = 0
KCXS 110145Z 11008KT 22/10 A3016 RMK A01 T02150097  RH  049%=      5-min Rain = 0
KCXS 110150Z 10007KT 21/10 A3016 RMK A01 T02100099  RH  051%=      5-min Rain = 0
KCXS 110155Z 11008KT 21/10 A3016 RMK A01 T02090100  RH  051%=      5-min Rain = 0
KCXS 110200Z 10008KT 21/10 A3016 RMK A01 T02090100  RH  051%=      5-min Rain = 0
KCXS 110205Z 10008KT 21/10 A3017 RMK A01 T02090101  RH  052%=      5-min Rain = 0
KCXS 110210Z 10009KT 21/10 A3017 RMK A01 T02090102  RH  052%=      5-min Rain = 0
KCXS 110215Z 10009KT 21/10 A3017 RMK A01 T02100101  RH  051%=      5-min Rain = 0
KCXS 110220Z 10009KT 21/10 A3018 RMK A01 T02100102  RH  052%=      5-min Rain = 0
KCXS 110225Z 10009KT 21/10 A3018 RMK A01 T02080102  RH  052%=      5-min Rain = 0
KCXS 110230Z 10009KT 21/10 A3018 RMK A01 T02060102  RH  053%=      5-min Rain = 0
KCXS 110235Z 10009KT 21/10 A3018 RMK A01 T02060102  RH  053%=      5-min Rain = 0
KCXS 110240Z 10010KT 21/10 A3018 RMK A01 T02060102  RH  053%=      5-min Rain = 0
KCXS 110245Z 11010KT 21/10 A3018 RMK A01 T02060102  RH  053%=      5-min Rain = 0
KCXS 110250Z 11009KT 21/10 A3018 RMK A01 T02060102  RH  053%=      5-min Rain = 0
KCXS 110255Z 11010KT 21/10 A3018 RMK A01 T02050102  RH  053%=      5-min Rain = 0
KCXS 110300Z 11009KT 21/10 A3018 RMK A01 T02050101  RH  053%=      5-min Rain = 0
KCXS 110305Z 12009KT 20/10 A3018 RMK A01 T02030102  RH  054%=      5-min Rain = 0
KCXS 110310Z 12010KT 20/10 A3018 RMK A01 T02020102  RH  054%=      5-min Rain = 0
KCXS 110315Z 12009KT 20/10 A3018 RMK A01 T02000102  RH  055%=      5-min Rain = 0
KCXS 110320Z 12009KT 20/10 A3018 RMK A01 T01970103  RH  056%=      5-min Rain = 0
KCXS 110325Z 12009KT 20/10 A3018 RMK A01 T01950103  RH  057%=      5-min Rain = 0
KCXS 110330Z 12009KT 19/10 A3018 RMK A01 T01940102  RH  057%=      5-min Rain = 0
KCXS 110335Z 12009KT 19/10 A3019 RMK A01 T01940102  RH  057%=      5-min Rain = 0
KCXS 110340Z 12009KT 19/10 A3019 RMK A01 T01920102  RH  058%=      5-min Rain = 0
KCXS 110345Z 12009KT 19/10 A3019 RMK A01 T01910102  RH  058%=      5-min Rain = 0
KCXS 110350Z 13009KT 19/10 A3019 RMK A01 T01890102  RH  059%=      5-min Rain = 0
KCXS 110355Z 13009KT 19/10 A3019 RMK A01 T01870102  RH  060%=      5-min Rain = 0
KCXS 110400Z 12009KT 19/10 A3019 RMK A01 T01860102  RH  060%=      5-min Rain = 0
KCXS 110405Z 13009KT 19/10 A3019 RMK A01 T01850102  RH  061%=      5-min Rain = 0
KCXS 110410Z 13009KT 18/10 A3019 RMK A01 T01820103  RH  062%=      5-min Rain = 0
KCXS 110415Z 13009KT 18/10 A3019 RMK A01 T01810102  RH  062%=      5-min Rain = 0
KCXS 110420Z 13010KT 18/10 A3019 RMK A01 T01830101  RH  061%=      5-min Rain = 0
KCXS 110425Z 13009KT 18/10 A3019 RMK A01 T01840101  RH  060%=      5-min Rain = 0
KCXS 110430Z 13009KT 18/10 A3019 RMK A01 T01840101  RH  060%=      5-min Rain = 0
KCXS 110435Z 13009KT 18/10 A3019 RMK A01 T01830100  RH  061%=      5-min Rain = 0
KCXS 110440Z 13009KT 18/10 A3019 RMK A01 T01810100  RH  061%=      5-min Rain = 0
KCXS 110445Z 13008KT 18/10 A3019 RMK A01 T01790100  RH  062%=      5-min Rain = 0
KCXS 110450Z 13008KT 18/10 A3019 RMK A01 T01770100  RH  062%=      5-min Rain = 0
KCXS 110455Z 13008KT 18/10 A3019 RMK A01 T01760100  RH  063%=      5-min Rain = 0

Page generated in 0.0093 seconds.